createdAt,value
2018-09-16T00:00:56.755Z,949.30
2018-09-16T00:02:04.799Z,949.29
2018-09-16T00:03:12.829Z,949.32
2018-09-16T00:04:20.943Z,949.31
2018-09-16T00:05:29.077Z,949.31
2018-09-16T00:06:38.091Z,949.31
2018-09-16T00:07:45.108Z,949.29
2018-09-16T00:08:53.427Z,949.29
2018-09-16T00:10:01.489Z,949.29
2018-09-16T00:11:09.395Z,949.28
2018-09-16T00:12:17.349Z,949.29
2018-09-16T00:13:25.434Z,949.25
2018-09-16T00:14:33.488Z,949.29
2018-09-16T00:15:41.549Z,949.29
2018-09-16T00:16:49.707Z,949.26
2018-09-16T00:17:57.928Z,949.26
2018-09-16T00:19:05.935Z,949.22
2018-09-16T00:20:14.048Z,949.17
2018-09-16T00:21:22.057Z,949.15
2018-09-16T00:22:30.207Z,949.12
2018-09-16T00:23:38.192Z,949.08
2018-09-16T00:24:46.255Z,949.13
2018-09-16T00:25:54.313Z,949.10
2018-09-16T00:27:03.231Z,949.13
2018-09-16T00:28:10.526Z,949.10
2018-09-16T00:29:18.536Z,949.11
2018-09-16T00:30:26.818Z,949.15
2018-09-16T00:31:34.625Z,949.15
2018-09-16T00:32:42.761Z,949.11
2018-09-16T00:33:50.746Z,949.12
2018-09-16T00:34:58.810Z,949.11
2018-09-16T00:36:06.862Z,949.08
2018-09-16T00:37:16.005Z,949.06
2018-09-16T00:38:23.088Z,949.03
2018-09-16T00:39:31.056Z,949.05
2018-09-16T00:40:39.114Z,948.99
2018-09-16T00:41:47.164Z,949.01
2018-09-16T00:42:55.339Z,949.01
2018-09-16T00:44:03.281Z,948.96
2018-09-16T00:45:11.365Z,948.94
2018-09-16T00:46:19.431Z,948.94
2018-09-16T00:47:27.545Z,948.96
2018-09-16T00:48:35.643Z,948.93
2018-09-16T00:49:43.603Z,948.93
2018-09-16T00:50:51.677Z,948.91
2018-09-16T00:51:59.745Z,948.87
2018-09-16T00:53:07.800Z,948.93
2018-09-16T00:54:17.420Z,948.88
2018-09-16T00:55:23.927Z,948.88
2018-09-16T00:56:31.970Z,948.84
2018-09-16T00:57:40.143Z,948.80
2018-09-16T00:58:48.369Z,948.83
2018-09-16T00:59:56.288Z,948.81
2018-09-16T01:01:04.240Z,948.78
2018-09-16T01:02:12.291Z,948.74
2018-09-16T01:03:20.339Z,948.76
2018-09-16T01:04:28.385Z,948.76
2018-09-16T01:05:36.567Z,948.77
2018-09-16T01:06:44.519Z,948.79
2018-09-16T01:07:52.575Z,948.72
2018-09-16T01:09:00.651Z,948.71
2018-09-16T01:10:08.727Z,948.70
2018-09-16T01:11:16.880Z,948.71
2018-09-16T01:12:25.927Z,948.69
2018-09-16T01:13:32.883Z,948.70
2018-09-16T01:14:40.980Z,948.74
2018-09-16T01:15:49.030Z,948.71
2018-09-16T01:16:57.443Z,948.69
2018-09-16T01:18:05.150Z,948.67
2018-09-16T01:19:13.200Z,948.71
2018-09-16T01:20:21.269Z,948.64
2018-09-16T01:21:29.334Z,948.63
2018-09-16T01:22:37.498Z,948.64
2018-09-16T01:23:45.600Z,948.64
2018-09-16T01:24:53.533Z,948.66
2018-09-16T01:26:01.589Z,948.64
2018-09-16T01:27:09.651Z,948.67
2018-09-16T01:28:17.804Z,948.64
2018-09-16T01:29:26.043Z,948.63
2018-09-16T01:30:33.890Z,948.63
2018-09-16T01:31:41.914Z,948.62
2018-09-16T01:32:49.973Z,948.58
2018-09-16T01:33:58.174Z,948.60
2018-09-16T01:35:06.098Z,948.55
2018-09-16T01:36:14.159Z,948.55
2018-09-16T01:37:22.221Z,948.58
2018-09-16T01:38:30.285Z,948.55
2018-09-16T01:39:38.425Z,948.52
2018-09-16T01:40:46.411Z,948.54
2018-09-16T01:41:54.460Z,948.53
2018-09-16T01:43:02.595Z,948.50
2018-09-16T01:44:10.596Z,948.51
2018-09-16T01:45:18.746Z,948.51
2018-09-16T01:46:26.727Z,948.47
2018-09-16T01:47:34.780Z,948.46
2018-09-16T01:48:42.815Z,948.45
2018-09-16T01:49:50.902Z,948.47
2018-09-16T01:50:59.274Z,948.45
2018-09-16T01:52:07.232Z,948.46
2018-09-16T01:53:15.281Z,948.46
2018-09-16T01:54:23.344Z,948.42
2018-09-16T01:55:31.411Z,948.48
2018-09-16T01:56:39.568Z,948.51
2018-09-16T01:57:47.621Z,948.49
2018-09-16T01:58:55.594Z,948.52
2018-09-16T02:00:03.647Z,948.53
2018-09-16T02:01:11.747Z,948.53
2018-09-16T02:02:19.886Z,948.53
2018-09-16T02:03:27.847Z,948.51
2018-09-16T02:04:36.009Z,948.54
2018-09-16T02:05:43.963Z,948.53
2018-09-16T02:06:52.042Z,948.51
2018-09-16T02:08:00.205Z,948.49
2018-09-16T02:09:08.220Z,948.46
2018-09-16T02:10:16.219Z,948.38
2018-09-16T02:11:24.283Z,948.44
2018-09-16T02:12:32.477Z,948.36
2018-09-16T02:13:40.409Z,948.38
2018-09-16T02:14:48.459Z,948.40
2018-09-16T02:15:57.109Z,948.40
2018-09-16T02:17:04.595Z,948.37
2018-09-16T02:18:12.750Z,948.40
2018-09-16T02:19:20.853Z,948.36
2018-09-16T02:20:28.769Z,948.33
2018-09-16T02:21:36.839Z,948.36
2018-09-16T02:22:44.918Z,948.29
2018-09-16T02:23:53.052Z,948.29
2018-09-16T02:25:01.033Z,948.32
2018-09-16T02:26:09.101Z,948.25
2018-09-16T02:27:17.149Z,948.21
2018-09-16T02:28:25.402Z,948.23
2018-09-16T02:29:33.372Z,948.25
2018-09-16T02:30:41.604Z,948.23
2018-09-16T02:31:49.487Z,948.22
2018-09-16T02:32:57.458Z,948.18
2018-09-16T02:34:05.541Z,948.16
2018-09-16T02:35:13.672Z,948.19
2018-09-16T02:36:21.846Z,948.18
2018-09-16T02:37:29.914Z,948.19
2018-09-16T02:38:37.983Z,948.18
2018-09-16T02:39:46.038Z,948.14
2018-09-16T02:40:54.208Z,948.17
2018-09-16T02:42:02.152Z,948.16
2018-09-16T02:43:10.322Z,948.12
2018-09-16T02:44:18.285Z,948.12
2018-09-16T02:45:26.354Z,948.14
2018-09-16T02:46:34.514Z,948.12
2018-09-16T02:47:42.477Z,948.08
2018-09-16T02:48:51.604Z,948.09
2018-09-16T02:49:58.590Z,948.10
2018-09-16T02:51:06.863Z,948.09
2018-09-16T02:52:15.023Z,948.04
2018-09-16T02:53:22.994Z,948.05
2018-09-16T02:54:31.047Z,948.03
2018-09-16T02:55:39.312Z,948.01
2018-09-16T02:56:47.458Z,948.02
2018-09-16T02:57:55.746Z,948.03
2018-09-16T02:59:03.793Z,948.02
2018-09-16T03:00:11.776Z,947.98
2018-09-16T03:01:20.092Z,947.98
2018-09-16T03:02:27.990Z,948.00
2018-09-16T03:03:36.193Z,947.96
2018-09-16T03:04:44.009Z,947.95
2018-09-16T03:05:52.071Z,947.98
2018-09-16T03:07:00.162Z,947.96
2018-09-16T03:08:08.279Z,947.97
2018-09-16T03:09:16.257Z,947.97
2018-09-16T03:10:24.322Z,947.93
2018-09-16T03:11:32.447Z,947.97
2018-09-16T03:12:40.542Z,947.93
2018-09-16T03:13:48.499Z,947.90
2018-09-16T03:14:56.811Z,947.90
2018-09-16T03:16:04.623Z,947.90
2018-09-16T03:17:12.735Z,947.90
2018-09-16T03:18:20.860Z,947.88
2018-09-16T03:19:29.021Z,947.87
2018-09-16T03:20:37.079Z,947.82
2018-09-16T03:21:45.136Z,947.81
2018-09-16T03:22:53.174Z,947.79
2018-09-16T03:24:01.352Z,947.82
2018-09-16T03:25:09.568Z,947.81
2018-09-16T03:26:17.393Z,947.78
2018-09-16T03:27:25.441Z,947.79
2018-09-16T03:28:33.485Z,947.76
2018-09-16T03:29:41.668Z,947.76
2018-09-16T03:30:49.740Z,947.77
2018-09-16T03:31:57.800Z,947.73
2018-09-16T03:33:05.758Z,947.72
2018-09-16T03:34:13.813Z,947.72
2018-09-16T03:35:21.984Z,947.70
2018-09-16T03:36:29.940Z,947.69
2018-09-16T03:37:38.014Z,947.69
2018-09-16T03:38:46.054Z,947.69
2018-09-16T03:39:54.149Z,947.68
2018-09-16T03:41:02.281Z,947.71
2018-09-16T03:42:10.261Z,947.69
2018-09-16T03:43:18.307Z,947.73
2018-09-16T03:44:26.363Z,947.69
2018-09-16T03:45:34.443Z,947.71
2018-09-16T03:46:42.603Z,947.74
2018-09-16T03:47:50.561Z,947.73
2018-09-16T03:48:58.821Z,947.67
2018-09-16T03:50:06.894Z,947.70
2018-09-16T03:51:15.049Z,947.74
2018-09-16T03:52:23.360Z,947.75
2018-09-16T03:53:31.065Z,947.78
2018-09-16T03:54:39.137Z,947.67
2018-09-16T03:55:47.195Z,947.66
2018-09-16T03:56:55.256Z,947.70
2018-09-16T03:58:08.565Z,947.70
2018-09-16T03:59:11.464Z,947.68
2018-09-16T04:00:19.435Z,947.67
2018-09-16T04:01:27.496Z,947.65
2018-09-16T04:02:36.390Z,947.63
2018-09-16T04:03:43.615Z,947.61
2018-09-16T04:04:52.229Z,947.62
2018-09-16T04:05:59.743Z,947.62
2018-09-16T04:07:07.811Z,947.60
2018-09-16T04:08:15.976Z,947.63
2018-09-16T04:09:24.220Z,947.57
2018-09-16T04:10:32.012Z,947.61
2018-09-16T04:11:40.140Z,947.63
2018-09-16T04:12:48.223Z,947.56
2018-09-16T04:13:56.232Z,947.57
2018-09-16T04:15:04.539Z,947.55
2018-09-16T04:16:12.304Z,947.51
2018-09-16T04:17:20.505Z,947.53
2018-09-16T04:18:28.887Z,947.51
2018-09-16T04:19:36.700Z,947.55
2018-09-16T04:20:44.766Z,947.50
2018-09-16T04:21:52.796Z,947.55
2018-09-16T04:23:01.093Z,947.54
2018-09-16T04:24:09.337Z,947.54
2018-09-16T04:25:17.205Z,947.55
2018-09-16T04:26:25.252Z,947.52
2018-09-16T04:27:33.319Z,947.50
2018-09-16T04:28:41.417Z,947.49
2018-09-16T04:29:49.545Z,947.48
2018-09-16T04:30:57.510Z,947.49
2018-09-16T04:32:05.560Z,947.47
2018-09-16T04:33:13.734Z,947.49
2018-09-16T04:34:21.707Z,947.46
2018-09-16T04:35:29.904Z,947.47
2018-09-16T04:36:37.829Z,947.50
2018-09-16T04:37:45.866Z,947.51
2018-09-16T04:38:53.944Z,947.43
2018-09-16T04:40:02.098Z,947.51
2018-09-16T04:41:10.166Z,947.46
2018-09-16T04:42:18.143Z,947.51
2018-09-16T04:43:26.197Z,947.52
2018-09-16T04:44:34.244Z,947.47
2018-09-16T04:45:42.315Z,947.52
2018-09-16T04:46:50.479Z,947.50
2018-09-16T04:48:03.708Z,947.50
2018-09-16T04:49:06.503Z,947.50
2018-09-16T04:50:14.551Z,947.53
2018-09-16T04:51:22.629Z,947.43
2018-09-16T04:52:35.941Z,947.47
2018-09-16T04:53:38.741Z,947.46
2018-09-16T04:54:46.814Z,947.49
2018-09-16T04:55:54.883Z,947.50
2018-09-16T04:57:02.912Z,947.49
2018-09-16T04:58:11.102Z,947.49
2018-09-16T04:59:19.285Z,947.51
2018-09-16T05:00:27.120Z,947.52
2018-09-16T05:01:35.182Z,947.53
2018-09-16T05:02:43.679Z,947.58
2018-09-16T05:03:51.308Z,947.57
2018-09-16T05:04:59.356Z,947.59
2018-09-16T05:06:07.440Z,947.52
2018-09-16T05:07:15.505Z,947.57
2018-09-16T05:08:23.641Z,947.52
2018-09-16T05:09:32.081Z,947.54
2018-09-16T05:10:39.879Z,947.53
2018-09-16T05:11:47.937Z,947.55
2018-09-16T05:12:56.004Z,947.59
2018-09-16T05:14:04.206Z,947.52
2018-09-16T05:15:12.386Z,947.59
2018-09-16T05:16:20.213Z,947.54
2018-09-16T05:17:28.245Z,947.55
2018-09-16T05:18:36.398Z,947.57
2018-09-16T05:19:44.464Z,947.54
2018-09-16T05:20:52.432Z,947.58
2018-09-16T05:22:00.491Z,947.59
2018-09-16T05:23:08.580Z,947.59
2018-09-16T05:24:16.624Z,947.61
2018-09-16T05:25:24.772Z,947.60
2018-09-16T05:26:32.730Z,947.66
2018-09-16T05:27:40.814Z,947.68
2018-09-16T05:28:50.097Z,947.71
2018-09-16T05:29:56.994Z,947.71
2018-09-16T05:31:05.077Z,947.75
2018-09-16T05:32:13.039Z,947.71
2018-09-16T05:33:21.130Z,947.71
2018-09-16T05:34:29.269Z,947.73
2018-09-16T05:35:37.236Z,947.78
2018-09-16T05:36:45.385Z,947.76
2018-09-16T05:37:53.345Z,947.73
2018-09-16T05:39:01.714Z,947.78
2018-09-16T05:40:09.795Z,947.84
2018-09-16T05:41:17.556Z,947.82
2018-09-16T05:42:25.896Z,947.77
2018-09-16T05:43:34.005Z,947.83
2018-09-16T05:44:43.309Z,947.78
2018-09-16T05:45:49.805Z,947.79
2018-09-16T05:46:57.869Z,947.79
2018-09-16T05:48:06.017Z,947.84
2018-09-16T05:49:14.326Z,947.84
2018-09-16T05:50:22.139Z,947.82
2018-09-16T05:51:30.119Z,947.84
2018-09-16T05:52:38.699Z,947.86
2018-09-16T05:53:46.681Z,947.89
2018-09-16T05:54:54.918Z,947.84
2018-09-16T05:56:02.742Z,947.87
2018-09-16T05:57:11.111Z,947.90
2018-09-16T05:58:18.979Z,947.93
2018-09-16T05:59:26.951Z,947.93
2018-09-16T06:00:35.358Z,947.92
2018-09-16T06:01:43.407Z,947.98
2018-09-16T06:02:51.226Z,947.97
2018-09-16T06:04:00.030Z,948.02
2018-09-16T06:05:07.363Z,948.02
2018-09-16T06:06:15.426Z,948.04
2018-09-16T06:07:23.366Z,948.05
2018-09-16T06:08:31.539Z,948.07
2018-09-16T06:09:39.797Z,948.12
2018-09-16T06:10:47.581Z,948.15
2018-09-16T06:11:55.647Z,948.10
2018-09-16T06:13:04.183Z,948.05
2018-09-16T06:14:11.875Z,948.06
2018-09-16T06:15:19.812Z,948.05
2018-09-16T06:16:28.172Z,948.04
2018-09-16T06:17:36.633Z,948.09
2018-09-16T06:18:44.095Z,948.05
2018-09-16T06:19:52.165Z,948.07
2018-09-16T06:21:00.139Z,948.08
2018-09-16T06:22:08.609Z,948.09
2018-09-16T06:23:16.266Z,948.09
2018-09-16T06:24:24.410Z,948.08
2018-09-16T06:25:32.789Z,948.08
2018-09-16T06:26:40.439Z,948.08
2018-09-16T06:27:49.253Z,948.08
2018-09-16T06:28:56.874Z,948.13
2018-09-16T06:30:04.988Z,948.14
2018-09-16T06:31:12.779Z,948.20
2018-09-16T06:32:20.752Z,948.18
2018-09-16T06:33:28.833Z,948.20
2018-09-16T06:34:37.235Z,948.19
2018-09-16T06:35:45.148Z,948.22
2018-09-16T06:36:54.400Z,948.28
2018-09-16T06:38:01.376Z,948.23
2018-09-16T06:39:09.342Z,948.23
2018-09-16T06:40:17.606Z,948.22
2018-09-16T06:41:25.594Z,948.18
2018-09-16T06:42:33.964Z,948.22
2018-09-16T06:43:41.630Z,948.23
2018-09-16T06:44:49.886Z,948.27
2018-09-16T06:45:57.830Z,948.33
2018-09-16T06:47:07.037Z,948.25
2018-09-16T06:48:13.941Z,948.27
2018-09-16T06:49:22.659Z,948.25
2018-09-16T06:50:29.974Z,948.32
2018-09-16T06:51:38.044Z,948.40
2018-09-16T06:52:46.695Z,948.34
2018-09-16T06:53:54.175Z,948.38
2018-09-16T06:55:02.621Z,948.34
2018-09-16T06:56:10.480Z,948.45
2018-09-16T06:57:18.553Z,948.53
2018-09-16T06:58:26.918Z,948.41
2018-09-16T06:59:34.682Z,948.41
2018-09-16T07:00:42.764Z,948.52
2018-09-16T07:01:51.160Z,948.82
2018-09-16T07:02:58.885Z,949.23
2018-09-16T07:04:07.035Z,949.33
2018-09-16T07:05:15.011Z,950.29
2018-09-16T07:06:23.053Z,950.74
2018-09-16T07:07:31.422Z,950.84
2018-09-16T07:08:39.191Z,950.84
2018-09-16T07:09:47.353Z,950.89
2018-09-16T07:10:55.556Z,951.00
2018-09-16T07:12:03.591Z,950.53
2018-09-16T07:13:11.688Z,950.42
2018-09-16T07:14:19.787Z,950.43
2018-09-16T07:15:27.916Z,950.39
2018-09-16T07:16:35.870Z,950.37
2018-09-16T07:17:43.928Z,950.46
2018-09-16T07:18:52.047Z,950.28
2018-09-16T07:20:00.094Z,950.12
2018-09-16T07:21:08.448Z,950.08
2018-09-16T07:22:16.398Z,950.11
2018-09-16T07:23:25.938Z,950.11
2018-09-16T07:24:32.532Z,950.47
2018-09-16T07:25:40.613Z,950.43
2018-09-16T07:26:49.278Z,950.38
2018-09-16T07:27:57.188Z,950.49
2018-09-16T07:29:04.832Z,950.64
2018-09-16T07:30:13.121Z,950.79
2018-09-16T07:31:20.960Z,950.76
2018-09-16T07:32:29.131Z,950.83
2018-09-16T07:33:40.537Z,950.83
2018-09-16T07:34:45.464Z,950.82
2018-09-16T07:35:53.527Z,950.62
2018-09-16T07:37:01.586Z,950.72
2018-09-16T07:38:09.672Z,950.87
2018-09-16T07:39:18.394Z,951.05
2018-09-16T07:40:25.775Z,951.11
2018-09-16T07:41:35.675Z,951.14
2018-09-16T07:42:44.920Z,951.00
2018-09-16T07:43:51.581Z,950.93
2018-09-16T07:44:59.724Z,950.98
2018-09-16T07:46:07.485Z,951.00
2018-09-16T07:47:15.703Z,950.97
2018-09-16T07:48:25.742Z,950.94
2018-09-16T07:49:34.069Z,951.05
2018-09-16T07:50:41.839Z,951.16
2018-09-16T07:51:50.208Z,951.34
2018-09-16T07:52:58.623Z,951.66
2018-09-16T07:54:06.113Z,952.09
2018-09-16T07:55:14.176Z,952.45
2018-09-16T07:56:22.139Z,952.88
2018-09-16T07:57:30.686Z,953.42
2018-09-16T07:58:38.287Z,954.14
2018-09-16T07:59:47.071Z,954.79
2018-09-16T08:00:54.422Z,955.69
2018-09-16T08:02:02.759Z,956.46
2018-09-16T08:03:10.650Z,956.72
2018-09-16T08:04:18.638Z,957.58
2018-09-16T08:05:27.002Z,958.76
2018-09-16T08:06:34.786Z,958.76
2018-09-16T08:07:43.197Z,959.66
2018-09-16T08:08:51.341Z,960.49
2018-09-16T08:09:59.781Z,961.99
2018-09-16T08:11:07.376Z,962.26
2018-09-16T08:12:15.570Z,964.25
2018-09-16T08:13:23.399Z,965.25
2018-09-16T08:14:31.727Z,966.26
2018-09-16T08:15:39.870Z,967.67
2018-09-16T08:16:47.949Z,967.48
2018-09-16T08:17:55.726Z,967.69
2018-09-16T08:19:03.841Z,969.27
2018-09-16T08:20:12.545Z,970.31
2018-09-16T08:21:21.621Z,970.97
2018-09-16T08:22:29.623Z,971.96
2018-09-16T08:23:37.683Z,972.95
2018-09-16T08:24:45.767Z,972.55
2018-09-16T08:25:53.929Z,973.29
2018-09-16T08:27:01.995Z,973.76
2018-09-16T08:28:10.249Z,973.63
2018-09-16T08:29:18.073Z,972.79
2018-09-16T08:30:26.134Z,972.93
2018-09-16T08:31:34.314Z,972.87
2018-09-16T08:32:42.381Z,973.12
2018-09-16T08:33:50.362Z,960.90
2018-09-16T08:34:58.434Z,948.85
2018-09-16T08:36:06.607Z,948.67
2018-09-16T08:37:14.664Z,948.66
2018-09-16T08:38:22.641Z,948.69
2018-09-16T08:39:30.710Z,948.69
2018-09-16T08:40:39.811Z,948.67
2018-09-16T08:41:46.859Z,948.64
2018-09-16T08:42:55.041Z,948.59
2018-09-16T08:44:02.966Z,948.59
2018-09-16T08:45:11.060Z,948.60
2018-09-16T08:46:19.139Z,948.59
2018-09-16T08:47:27.215Z,948.54
2018-09-16T08:48:35.861Z,948.63
2018-09-16T08:49:43.522Z,948.63
2018-09-16T08:50:51.808Z,948.60
2018-09-16T08:51:59.493Z,948.66
2018-09-16T08:53:07.664Z,948.65
2018-09-16T08:54:15.642Z,948.63
2018-09-16T08:56:40.851Z,948.62
2018-09-16T08:57:48.999Z,948.58
2018-09-16T08:58:56.972Z,948.58
2018-09-16T09:00:05.031Z,948.60
2018-09-16T09:01:13.075Z,948.63
2018-09-16T09:02:21.183Z,948.65
2018-09-16T09:03:29.342Z,948.64
2018-09-16T09:05:48.202Z,948.61
2018-09-16T09:06:56.306Z,948.61
2018-09-16T09:08:04.354Z,948.67
2018-09-16T09:09:14.114Z,948.70
2018-09-16T09:10:22.087Z,948.66
2018-09-16T09:11:30.140Z,948.66
2018-09-16T09:12:38.272Z,948.67
2018-09-16T09:13:46.284Z,948.61
2018-09-16T09:14:59.829Z,948.62
2018-09-16T09:16:02.618Z,948.59
2018-09-16T09:17:10.688Z,948.61
2018-09-16T09:18:18.751Z,948.62
2018-09-16T09:19:26.819Z,948.64
2018-09-16T09:20:34.982Z,948.64
2018-09-16T09:21:44.092Z,948.63
2018-09-16T09:22:51.033Z,948.68
2018-09-16T09:23:59.079Z,948.66
2018-09-16T09:25:07.164Z,948.68
2018-09-16T09:26:15.583Z,948.67
2018-09-16T09:27:23.550Z,948.63
2018-09-16T09:28:31.603Z,948.59
2018-09-16T09:29:39.899Z,948.56
2018-09-16T09:30:47.984Z,948.53
2018-09-16T09:31:56.160Z,948.47
2018-09-16T09:33:04.095Z,948.49
2018-09-16T09:34:12.159Z,948.49
2018-09-16T09:35:20.218Z,948.55
2018-09-16T09:36:28.550Z,948.53
2018-09-16T09:37:36.745Z,948.55
2018-09-16T09:38:44.441Z,948.56
2018-09-16T09:39:52.494Z,948.56
2018-09-16T09:41:00.555Z,948.59
2018-09-16T09:42:08.635Z,948.55
2018-09-16T09:43:16.802Z,948.55
2018-09-16T09:44:24.768Z,948.56
2018-09-16T09:45:32.817Z,948.56
2018-09-16T09:46:40.904Z,948.55
2018-09-16T09:47:49.077Z,948.57
2018-09-16T09:48:57.044Z,948.58
2018-09-16T09:50:05.110Z,948.58
2018-09-16T09:51:13.153Z,948.56
2018-09-16T09:52:21.246Z,948.57
2018-09-16T09:53:29.530Z,948.57
2018-09-16T09:54:37.576Z,948.54
2018-09-16T09:55:45.692Z,948.55
2018-09-16T09:56:53.725Z,948.51
2018-09-16T09:58:01.791Z,948.47
2018-09-16T09:59:10.045Z,948.45
2018-09-16T10:00:17.919Z,948.47
2018-09-16T10:01:26.008Z,948.42
2018-09-16T10:02:34.062Z,948.41
2018-09-16T10:03:42.187Z,948.40
2018-09-16T10:04:50.298Z,948.37
2018-09-16T10:05:58.307Z,948.37
2018-09-16T10:07:06.341Z,948.35
2018-09-16T10:08:14.748Z,948.34
2018-09-16T10:09:22.485Z,948.30
2018-09-16T10:10:30.637Z,948.29
2018-09-16T10:11:38.610Z,948.32
2018-09-16T10:12:46.686Z,948.23
2018-09-16T10:13:54.751Z,948.25
2018-09-16T10:15:02.876Z,948.24
2018-09-16T10:16:11.027Z,948.21
2018-09-16T10:17:18.960Z,948.26
2018-09-16T10:18:27.036Z,948.24
2018-09-16T10:19:35.081Z,948.21
2018-09-16T10:20:43.396Z,948.18
2018-09-16T10:21:51.369Z,948.15
2018-09-16T10:22:59.308Z,948.17
2018-09-16T10:24:07.440Z,948.14
2018-09-16T10:25:15.429Z,948.14
2018-09-16T10:26:23.520Z,948.22
2018-09-16T10:27:31.671Z,948.17
2018-09-16T10:28:39.632Z,948.21
2018-09-16T10:29:47.827Z,948.16
2018-09-16T10:30:56.138Z,948.20
2018-09-16T10:32:03.849Z,948.21
2018-09-16T10:33:12.010Z,948.21
2018-09-16T10:34:20.069Z,948.20
2018-09-16T10:35:28.067Z,948.09
2018-09-16T10:36:36.387Z,948.08
2018-09-16T10:37:44.319Z,948.03
2018-09-16T10:38:52.305Z,948.04
2018-09-16T10:40:00.377Z,948.04
2018-09-16T10:41:09.440Z,948.07
2018-09-16T10:42:16.466Z,948.07
2018-09-16T10:43:24.639Z,948.12
2018-09-16T10:44:32.648Z,948.10
2018-09-16T10:45:40.767Z,948.11
2018-09-16T10:46:48.742Z,948.14
2018-09-16T10:47:56.801Z,948.12
2018-09-16T10:49:04.967Z,948.13
2018-09-16T10:50:12.934Z,948.12
2018-09-16T10:51:21.303Z,948.12
2018-09-16T10:52:29.093Z,948.12
2018-09-16T10:53:37.166Z,948.10
2018-09-16T10:54:45.448Z,948.12
2018-09-16T10:55:53.285Z,948.07
2018-09-16T10:57:01.368Z,948.06
2018-09-16T10:58:10.050Z,948.06
2018-09-16T10:59:18.456Z,948.02
2018-09-16T11:00:26.268Z,947.98
2018-09-16T11:01:34.336Z,947.95
2018-09-16T11:02:42.315Z,947.97
2018-09-16T11:03:50.398Z,947.90
2018-09-16T11:04:58.465Z,947.89
2018-09-16T11:06:06.625Z,947.91
2018-09-16T11:07:14.593Z,947.87
2018-09-16T11:08:22.657Z,947.83
2018-09-16T11:09:30.762Z,947.82
2018-09-16T11:10:38.853Z,947.85
2018-09-16T11:11:46.963Z,947.83
2018-09-16T11:12:54.984Z,947.87
2018-09-16T11:14:02.988Z,947.81
2018-09-16T11:15:11.072Z,947.84
2018-09-16T11:16:19.162Z,947.82
2018-09-16T11:17:27.323Z,947.85
2018-09-16T11:18:35.293Z,947.85
2018-09-16T11:19:43.426Z,947.83
2018-09-16T11:20:51.422Z,947.83
2018-09-16T11:21:59.532Z,947.82
2018-09-16T11:23:07.665Z,947.83
2018-09-16T11:24:15.642Z,947.83
2018-09-16T11:25:23.721Z,947.85
2018-09-16T11:26:31.771Z,947.83
2018-09-16T11:27:39.939Z,947.82
2018-09-16T11:28:47.999Z,947.84
2018-09-16T11:29:55.995Z,947.86
2018-09-16T11:31:04.054Z,947.84
2018-09-16T11:32:12.394Z,947.87
2018-09-16T11:33:20.297Z,947.81
2018-09-16T11:34:28.270Z,947.86
2018-09-16T11:35:36.355Z,947.85
2018-09-16T11:36:44.419Z,947.83
2018-09-16T11:37:52.472Z,947.82
2018-09-16T11:39:00.643Z,947.82
2018-09-16T11:40:08.624Z,947.85
2018-09-16T11:41:16.698Z,947.85
2018-09-16T11:42:24.766Z,947.82
2018-09-16T11:43:32.808Z,947.83
2018-09-16T11:44:41.387Z,947.82
2018-09-16T11:45:48.964Z,947.80
2018-09-16T11:46:57.029Z,947.83
2018-09-16T11:48:05.303Z,947.80
2018-09-16T11:49:13.159Z,947.77
2018-09-16T11:50:21.605Z,947.74
2018-09-16T11:51:29.355Z,947.75
2018-09-16T11:52:37.377Z,947.71
2018-09-16T11:53:45.451Z,947.68
2018-09-16T11:54:53.517Z,947.63
2018-09-16T11:56:01.836Z,947.62
2018-09-16T11:57:09.663Z,947.58
2018-09-16T11:58:17.742Z,947.55
2018-09-16T11:59:25.814Z,947.53
2018-09-16T12:00:33.888Z,947.50
2018-09-16T12:01:42.139Z,947.50
2018-09-16T12:02:50.151Z,947.49
2018-09-16T12:03:58.093Z,947.47
2018-09-16T12:05:06.160Z,947.42
2018-09-16T12:06:14.238Z,947.46
2018-09-16T12:07:22.407Z,947.44
2018-09-16T12:08:30.375Z,947.48
2018-09-16T12:09:38.439Z,947.47
2018-09-16T12:10:46.526Z,947.46
2018-09-16T12:11:54.850Z,947.45
2018-09-16T12:13:02.734Z,947.45
2018-09-16T12:14:10.722Z,947.45
2018-09-16T12:15:18.810Z,947.42
2018-09-16T12:16:26.861Z,947.43
2018-09-16T12:17:34.993Z,947.40
2018-09-16T12:18:43.037Z,947.41
2018-09-16T12:19:51.064Z,947.36
2018-09-16T12:20:59.137Z,947.41
2018-09-16T12:22:07.226Z,947.41
2018-09-16T12:23:15.361Z,947.41
2018-09-16T12:24:23.325Z,947.41
2018-09-16T12:25:31.421Z,947.41
2018-09-16T12:26:39.760Z,947.35
2018-09-16T12:27:47.667Z,947.40
2018-09-16T12:28:55.640Z,947.34
2018-09-16T12:30:03.706Z,947.34
2018-09-16T12:31:11.786Z,947.34
2018-09-16T12:32:19.856Z,947.34
2018-09-16T12:33:28.025Z,947.37
2018-09-16T12:34:36.067Z,947.37
2018-09-16T12:35:44.057Z,947.34
2018-09-16T12:36:52.129Z,947.29
2018-09-16T12:38:00.197Z,947.27
2018-09-16T12:39:08.356Z,947.23
2018-09-16T12:40:16.327Z,947.20
2018-09-16T12:41:24.406Z,947.24
2018-09-16T12:42:32.442Z,947.23
2018-09-16T12:43:40.569Z,947.24
2018-09-16T12:44:48.665Z,947.26
2018-09-16T12:45:56.674Z,947.25
2018-09-16T12:47:04.766Z,947.25
2018-09-16T12:48:12.785Z,947.25
2018-09-16T12:49:20.888Z,947.25
2018-09-16T12:50:29.055Z,947.27
2018-09-16T12:51:37.034Z,947.26
2018-09-16T12:52:45.120Z,947.22
2018-09-16T12:53:53.143Z,947.23
2018-09-16T12:55:01.241Z,947.24
2018-09-16T12:56:09.658Z,947.22
2018-09-16T12:57:17.378Z,947.22
2018-09-16T12:58:25.451Z,947.23
2018-09-16T12:59:33.501Z,947.23
2018-09-16T13:00:41.629Z,947.18
2018-09-16T13:01:49.755Z,947.21
2018-09-16T13:02:57.711Z,947.24
2018-09-16T13:04:05.849Z,947.28
2018-09-16T13:05:13.860Z,947.22
2018-09-16T13:06:22.042Z,947.21
2018-09-16T13:07:30.106Z,947.18
2018-09-16T13:08:38.105Z,947.21
2018-09-16T13:09:46.142Z,947.17
2018-09-16T13:10:54.710Z,947.18
2018-09-16T13:12:02.460Z,947.18
2018-09-16T13:13:10.662Z,947.20
2018-09-16T13:14:18.712Z,947.16
2018-09-16T13:15:26.695Z,947.14
2018-09-16T13:16:34.771Z,947.14
2018-09-16T13:17:42.903Z,947.09
2018-09-16T13:18:50.917Z,947.08
2018-09-16T13:19:58.963Z,947.06
2018-09-16T13:21:07.053Z,947.02
2018-09-16T13:22:15.242Z,947.05
2018-09-16T13:23:23.267Z,947.00
2018-09-16T13:24:31.244Z,946.97
2018-09-16T13:25:40.325Z,946.98
2018-09-16T13:26:47.602Z,946.97
2018-09-16T13:27:55.652Z,947.01
2018-09-16T13:29:03.841Z,947.03
2018-09-16T13:30:11.801Z,947.02
2018-09-16T13:31:20.083Z,947.02
2018-09-16T13:32:28.149Z,947.06
2018-09-16T13:33:36.219Z,946.98
2018-09-16T13:34:44.660Z,947.00
2018-09-16T13:35:52.362Z,946.98
2018-09-16T13:37:00.422Z,946.95
2018-09-16T13:38:08.675Z,946.91
2018-09-16T13:39:16.578Z,946.94
2018-09-16T13:40:24.749Z,946.93
2018-09-16T13:41:32.706Z,946.96
2018-09-16T13:42:40.831Z,946.94
2018-09-16T13:43:48.862Z,946.94
2018-09-16T13:44:56.947Z,946.92
2018-09-16T13:46:05.123Z,946.92
2018-09-16T13:47:13.139Z,946.88
2018-09-16T13:48:21.389Z,946.87
2018-09-16T13:49:29.214Z,946.86
2018-09-16T13:50:37.278Z,946.88
2018-09-16T13:51:45.531Z,946.86
2018-09-16T13:52:53.521Z,946.88
2018-09-16T13:54:01.504Z,946.90
2018-09-16T13:55:09.566Z,946.92
2018-09-16T13:56:17.681Z,946.93
2018-09-16T13:57:25.823Z,946.88
2018-09-16T13:58:33.775Z,946.84
2018-09-16T13:59:47.096Z,946.86
2018-09-16T14:00:50.168Z,946.86
2018-09-16T14:01:57.988Z,946.86
2018-09-16T14:03:06.398Z,946.82
2018-09-16T14:04:14.328Z,946.84
2018-09-16T14:05:22.407Z,946.83
2018-09-16T14:06:30.748Z,946.77
2018-09-16T14:07:38.930Z,946.76
2018-09-16T14:08:46.812Z,946.74
2018-09-16T14:09:54.887Z,946.74
2018-09-16T14:11:02.968Z,946.78
2018-09-16T14:12:11.288Z,946.75